Time;durP1;ratioP1;P1;durP2;ratioP2;P2;SDS_P1;SDS_P2;PMS_P1;PMS_P2;Temp;Humidity;BMP_temperature;BMP_pressure;BME280_temperature;BME280_humidity;BME280_pressure;Samples;Min_cycle;Max_cycle;Signal;HPM_P1;HPM_P2
2021/10/04 00:00:52;;;;;;;5.30;5.10;;;16.30;24.80;;;;;;5035044;28;20190;-68
2021/10/04 00:03:18;;;;;;;4.93;4.73;;;16.30;24.60;;;;;;5035332;28;20457;-68
2021/10/04 00:05:43;;;;;;;5.03;4.83;;;16.30;24.70;;;;;;5035049;28;20484;-69
2021/10/04 00:08:09;;;;;;;5.03;4.83;;;16.20;24.80;;;;;;5035397;28;20198;-68
2021/10/04 00:10:35;;;;;;;5.67;5.37;;;16.30;24.30;;;;;;5033921;28;20214;-68
2021/10/04 00:13:00;;;;;;;5.00;4.80;;;16.30;24.20;;;;;;5035021;28;20179;-68
2021/10/04 00:15:29;;;;;;;5.20;5.00;;;16.30;24.40;;;;;;5034965;28;20179;-68
2021/10/04 00:17:55;;;;;;;5.13;4.93;;;16.30;24.30;;;;;;5034915;28;20565;-68
2021/10/04 00:20:21;;;;;;;5.10;4.90;;;16.30;24.50;;;;;;5032774;28;20426;-68
2021/10/04 00:22:46;;;;;;;5.30;5.00;;;16.30;24.30;;;;;;5034449;28;20449;-68
2021/10/04 00:25:13;;;;;;;4.87;4.63;;;16.40;24.40;;;;;;5034983;28;20316;-68
2021/10/04 00:27:39;;;;;;;4.83;4.63;;;16.30;24.40;;;;;;5034935;28;20179;-68
2021/10/04 00:30:07;;;;;;;6.00;5.70;;;16.40;24.60;;;;;;5034082;28;20405;-68
2021/10/04 00:32:34;;;;;;;5.23;5.03;;;16.40;24.00;;;;;;5034546;28;20203;-68
2021/10/04 00:35:00;;;;;;;5.50;5.30;;;16.40;24.20;;;;;;5034297;28;20831;-68
2021/10/04 00:37:26;;;;;;;5.10;4.90;;;16.30;23.90;;;;;;5034260;28;20414;-68
2021/10/04 00:39:52;;;;;;;5.27;5.07;;;16.30;24.20;;;;;;5034179;28;20237;-68
2021/10/04 00:42:20;;;;;;;5.50;5.30;;;16.30;24.00;;;;;;5034149;28;20179;-68
2021/10/04 00:44:46;;;;;;;5.20;5.00;;;16.30;24.00;;;;;;5034441;28;20196;-68
2021/10/04 00:47:11;;;;;;;5.50;5.30;;;16.30;24.40;;;;;;5034014;28;20410;-68
2021/10/04 00:49:37;;;;;;;6.03;5.80;;;16.30;24.30;;;;;;5049394;28;20274;-68
2021/10/04 00:52:03;;;;;;;5.20;5.00;;;16.30;24.00;;;;;;5034194;28;20213;-68
2021/10/04 00:54:28;;;;;;;5.00;4.70;;;16.30;24.40;;;;;;5034378;28;20617;-68
2021/10/04 00:56:54;;;;;;;5.40;5.20;;;16.30;24.60;;;;;;5033920;28;20176;-68
2021/10/04 00:59:20;;;;;;;7.00;5.10;;;16.30;24.30;;;;;;5033805;28;20233;-68
2021/10/04 01:01:45;;;;;;;5.50;5.30;;;16.20;24.00;;;;;;5033647;28;20171;-68
2021/10/04 01:04:11;;;;;;;5.30;5.10;;;16.10;24.20;;;;;;5048884;28;20492;-68
2021/10/04 01:06:36;;;;;;;4.90;4.70;;;16.10;24.40;;;;;;5048964;28;20183;-68
2021/10/04 01:09:02;;;;;;;4.83;4.63;;;16.10;24.50;;;;;;5033557;28;20179;-68
2021/10/04 01:11:29;;;;;;;5.13;4.93;;;16.10;24.90;;;;;;5033620;28;20199;-68
2021/10/04 01:13:54;;;;;;;5.20;4.90;;;16.10;24.60;;;;;;5033109;28;20520;-68
2021/10/04 01:16:21;;;;;;;5.43;5.20;;;16.20;24.40;;;;;;5034553;28;20867;-68
2021/10/04 01:18:46;;;;;;;5.07;4.87;;;16.20;24.50;;;;;;5036005;28;20179;-68
2021/10/04 01:21:12;;;;;;;5.23;5.03;;;16.20;24.50;;;;;;5032092;28;20421;-68
2021/10/04 01:23:38;;;;;;;5.23;5.03;;;16.20;24.40;;;;;;5033429;28;20274;-68
2021/10/04 01:26:03;;;;;;;5.43;5.23;;;16.20;24.70;;;;;;5033428;28;20207;-68
2021/10/04 01:28:29;;;;;;;4.93;4.73;;;16.20;24.60;;;;;;5033535;28;20214;-68
2021/10/04 01:30:55;;;;;;;4.50;4.30;;;16.20;24.70;;;;;;5033831;28;20175;-68
2021/10/04 01:33:22;;;;;;;4.10;3.90;;;16.20;25.30;;;;;;5032686;28;20211;-68
2021/10/04 01:35:48;;;;;;;4.30;4.10;;;16.10;25.80;;;;;;5048878;28;20180;-68
2021/10/04 01:38:13;;;;;;;4.33;4.13;;;16.10;25.90;;;;;;5033150;28;20410;-68
2021/10/04 01:40:43;;;;;;;4.30;4.10;;;16.10;25.90;;;;;;5032980;28;20512;-68
2021/10/04 01:43:12;;;;;;;4.33;4.10;;;16.10;25.80;;;;;;5033346;28;20171;-68
2021/10/04 01:45:38;;;;;;;3.80;3.60;;;16.10;26.10;;;;;;5033126;28;20458;-68
2021/10/04 01:48:04;;;;;;;4.00;3.80;;;16.10;26.70;;;;;;5033163;28;20412;-68
2021/10/04 01:50:33;;;;;;;4.17;3.90;;;16.10;26.80;;;;;;5032945;28;20172;-68
2021/10/04 01:52:59;;;;;;;3.20;3.10;;;16.00;26.70;;;;;;5033441;28;20490;-68
2021/10/04 01:55:25;;;;;;;3.30;3.10;;;16.00;26.70;;;;;;5032904;28;20946;-68
2021/10/04 01:57:51;;;;;;;3.73;3.53;;;15.90;26.70;;;;;;5033174;28;20476;-68
2021/10/04 02:00:19;;;;;;;3.40;3.20;;;15.90;26.60;;;;;;5033017;28;20413;-68
2021/10/04 02:02:48;;;;;;;2.97;2.87;;;15.90;26.60;;;;;;5033246;28;20175;-68
2021/10/04 02:05:14;;;;;;;3.20;3.00;;;15.90;27.40;;;;;;5032728;28;21036;-68
2021/10/04 02:07:40;;;;;;;3.03;2.83;;;15.80;27.40;;;;;;5032850;28;20987;-68
2021/10/04 02:10:09;;;;;;;3.20;2.77;;;15.80;27.50;;;;;;5032641;28;20445;-68
2021/10/04 02:12:35;;;;;;;3.00;2.80;;;15.80;27.90;;;;;;5032629;28;20239;-68
2021/10/04 02:15:01;;;;;;;2.77;2.57;;;15.70;28.30;;;;;;5031752;28;20868;-68
2021/10/04 02:17:26;;;;;;;2.20;2.10;;;15.70;28.70;;;;;;5032787;28;20410;-68
2021/10/04 02:19:52;;;;;;;2.77;2.40;;;15.60;29.10;;;;;;5032724;28;20429;-68
2021/10/04 02:22:17;;;;;;;2.47;2.30;;;15.60;28.90;;;;;;5031809;28;20262;-68
2021/10/04 02:24:43;;;;;;;2.70;2.50;;;15.60;29.10;;;;;;5032870;28;20203;-68
2021/10/04 02:27:09;;;;;;;3.83;2.10;;;15.60;29.30;;;;;;5030723;28;20175;-68
2021/10/04 02:29:35;;;;;;;4.50;1.87;;;15.60;29.30;;;;;;5030726;28;20262;-68
2021/10/04 02:32:00;;;;;;;1.90;1.80;;;15.60;30.00;;;;;;5030669;28;20401;-68
2021/10/04 02:34:26;;;;;;;1.80;1.70;;;15.60;30.40;;;;;;5030581;28;20213;-68
2021/10/04 02:36:51;;;;;;;1.90;1.80;;;15.60;30.70;;;;;;5030678;28;20175;-68
2021/10/04 02:39:17;;;;;;;2.00;1.80;;;15.50;30.50;;;;;;5030386;28;20189;-68
2021/10/04 02:41:42;;;;;;;2.50;1.73;;;15.50;30.60;;;;;;5030657;28;20249;-69
2021/10/04 02:44:08;;;;;;;3.67;1.70;;;15.50;31.00;;;;;;5032845;28;20690;-68
2021/10/04 02:46:33;;;;;;;3.67;1.40;;;15.50;31.70;;;;;;5034403;28;20179;-68
2021/10/04 02:48:59;;;;;;;1.60;1.47;;;15.50;32.30;;;;;;5034293;28;20171;-68
2021/10/04 02:51:24;;;;;;;1.33;1.20;;;15.50;32.10;;;;;;5034656;28;20202;-68
2021/10/04 02:53:50;;;;;;;1.50;1.40;;;15.40;32.60;;;;;;5034189;28;20195;-68
2021/10/04 02:56:15;;;;;;;1.57;1.47;;;15.40;32.60;;;;;;5034473;28;20183;-68
2021/10/04 02:58:41;;;;;;;1.90;1.57;;;15.40;32.90;;;;;;5033002;28;20213;-68
2021/10/04 03:01:06;;;;;;;2.03;1.53;;;15.20;33.30;;;;;;5034024;28;20207;-68
2021/10/04 03:03:32;;;;;;;3.50;1.50;;;15.20;34.00;;;;;;5049661;28;20199;-68
2021/10/04 03:05:57;;;;;;;1.70;1.10;;;15.20;34.30;;;;;;5034117;28;20206;-68
2021/10/04 03:08:23;;;;;;;1.40;1.30;;;15.20;34.90;;;;;;5034094;28;20182;-68
2021/10/04 03:10:49;;;;;;;1.80;1.57;;;15.20;35.00;;;;;;5033794;28;20179;-68
2021/10/04 03:13:15;;;;;;;1.60;1.23;;;15.10;35.50;;;;;;5034112;28;20257;-68
2021/10/04 03:15:40;;;;;;;2.00;1.50;;;15.10;35.50;;;;;;5033992;28;20217;-68
2021/10/04 03:18:06;;;;;;;1.70;1.07;;;15.10;35.50;;;;;;5034217;28;20221;-68
2021/10/04 03:20:32;;;;;;;2.03;1.20;;;15.10;35.50;;;;;;5033822;28;20171;-68
2021/10/04 03:22:58;;;;;;;2.40;1.60;;;15.10;35.50;;;;;;5049097;28;20817;-68
2021/10/04 03:25:25;;;;;;;1.50;1.30;;;15.10;35.50;;;;;;5034132;28;20203;-68
2021/10/04 03:27:51;;;;;;;1.53;1.30;;;15.10;35.50;;;;;;5033880;28;20534;-68
2021/10/04 03:30:16;;;;;;;2.03;1.13;;;15.10;36.00;;;;;;5033519;28;20759;-68
2021/10/04 03:32:43;;;;;;;2.00;1.17;;;15.10;35.50;;;;;;5032814;28;20900;-68
2021/10/04 03:35:09;;;;;;;1.60;1.20;;;15.00;35.60;;;;;;5033595;28;20217;-68
2021/10/04 03:37:35;;;;;;;1.43;1.07;;;15.00;35.90;;;;;;5033631;28;20596;-68
2021/10/04 03:40:02;;;;;;;1.73;1.47;;;15.00;35.40;;;;;;5033310;28;20427;-68
2021/10/04 03:42:28;;;;;;;2.83;1.00;;;15.00;35.40;;;;;;5033350;28;20422;-68
2021/10/04 03:44:53;;;;;;;1.57;1.20;;;15.00;35.40;;;;;;5033176;28;20471;-68
2021/10/04 03:47:19;;;;;;;1.30;1.20;;;15.00;35.40;;;;;;5033486;28;20266;-68
2021/10/04 03:49:45;;;;;;;2.03;1.27;;;15.00;35.70;;;;;;5033469;28;20696;-68
2021/10/04 03:52:10;;;;;;;1.50;1.10;;;15.00;36.10;;;;;;5033289;28;20175;-68
2021/10/04 03:54:36;;;;;;;1.43;0.90;;;15.00;35.40;;;;;;5032377;28;20285;-68
2021/10/04 03:57:02;;;;;;;1.70;1.17;;;15.00;35.70;;;;;;5033125;28;20190;-68
2021/10/04 03:59:27;;;;;;;1.63;1.20;;;14.90;35.90;;;;;;5032969;28;20640;-68
2021/10/04 04:01:53;;;;;;;1.30;0.97;;;14.90;36.10;;;;;;5031838;28;20487;-68
2021/10/04 04:04:18;;;;;;;1.77;1.20;;;14.90;36.70;;;;;;5033080;28;20547;-67
2021/10/04 04:06:44;;;;;;;1.80;1.10;;;14.80;36.70;;;;;;5033142;28;20591;-68
2021/10/04 04:09:09;;;;;;;1.30;0.90;;;14.80;37.10;;;;;;5048502;28;20175;-68
2021/10/04 04:11:35;;;;;;;2.13;1.33;;;14.80;37.10;;;;;;5033262;28;20186;-68
2021/10/04 04:14:01;;;;;;;1.80;1.17;;;14.80;37.30;;;;;;5032763;28;20209;-68
2021/10/04 04:16:26;;;;;;;1.50;0.93;;;14.70;37.60;;;;;;5033233;28;20176;-68
2021/10/04 04:18:52;;;;;;;1.67;1.23;;;14.70;37.60;;;;;;5031419;28;20278;-69
2021/10/04 04:21:17;;;;;;;1.40;1.00;;;14.70;37.50;;;;;;5032775;28;20186;-68
2021/10/04 04:23:43;;;;;;;1.87;0.90;;;14.70;37.90;;;;;;5032688;28;20200;-68
2021/10/04 04:26:09;;;;;;;1.30;0.80;;;14.70;37.90;;;;;;5032689;28;20241;-68
2021/10/04 04:28:34;;;;;;;1.37;1.00;;;14.70;37.80;;;;;;5032615;28;20178;-68
2021/10/04 04:31:01;;;;;;;1.40;1.00;;;14.70;37.70;;;;;;5047632;28;20184;-68
2021/10/04 04:33:26;;;;;;;1.37;1.00;;;14.60;37.80;;;;;;5032289;28;20290;-68
2021/10/04 04:35:52;;;;;;;2.13;0.97;;;14.60;37.80;;;;;;5032415;28;20954;-68
2021/10/04 04:38:17;;;;;;;1.70;1.07;;;14.60;38.00;;;;;;5032712;28;20428;-68
2021/10/04 04:40:43;;;;;;;1.20;0.60;;;14.60;37.80;;;;;;5032069;28;20270;-68
2021/10/04 04:43:08;;;;;;;1.40;0.80;;;14.60;37.30;;;;;;5032285;28;20213;-68
2021/10/04 04:45:34;;;;;;;1.20;0.80;;;14.50;37.70;;;;;;5032270;28;20233;-67
2021/10/04 04:48:00;;;;;;;1.30;0.90;;;14.50;37.90;;;;;;5032355;28;20175;-68
2021/10/04 04:50:25;;;;;;;1.30;0.90;;;14.50;37.90;;;;;;5032149;28;20178;-68
2021/10/04 04:52:51;;;;;;;1.30;0.73;;;14.50;38.00;;;;;;5032062;28;20173;-68
2021/10/04 04:55:17;;;;;;;1.50;1.10;;;14.50;38.00;;;;;;5032056;28;20240;-68
2021/10/04 04:57:42;;;;;;;1.57;1.27;;;14.50;38.30;;;;;;5032215;28;20177;-68
2021/10/04 05:00:10;;;;;;;1.50;0.97;;;14.50;38.30;;;;;;5032058;28;20419;-68
2021/10/04 05:02:36;;;;;;;1.20;0.80;;;14.50;38.00;;;;;;5032302;28;20749;-68
2021/10/04 05:05:04;;;;;;;1.50;1.00;;;14.40;38.10;;;;;;5031958;28;20464;-67
2021/10/04 05:07:30;;;;;;;1.90;0.90;;;14.40;38.50;;;;;;5048073;28;20731;-67
2021/10/04 05:09:55;;;;;;;1.37;0.90;;;14.40;38.50;;;;;;5031657;28;20186;-67
2021/10/04 05:12:21;;;;;;;1.33;1.10;;;14.30;38.60;;;;;;5031806;28;20177;-67
2021/10/04 05:14:46;;;;;;;1.30;0.97;;;14.30;38.70;;;;;;5031730;28;20249;-68
2021/10/04 05:17:12;;;;;;;1.50;1.07;;;14.40;38.70;;;;;;5031758;28;20260;-67
2021/10/04 05:19:38;;;;;;;1.53;1.10;;;14.40;38.70;;;;;;5031853;28;20181;-68
2021/10/04 05:22:03;;;;;;;2.37;1.17;;;14.40;39.00;;;;;;5046778;28;20178;-68
2021/10/04 05:24:29;;;;;;;1.80;1.47;;;14.40;39.40;;;;;;5031354;28;20196;-68
2021/10/04 05:26:56;;;;;;;2.20;1.30;;;14.40;39.60;;;;;;5031556;28;20739;-67
2021/10/04 05:29:23;;;;;;;1.60;1.17;;;14.40;39.40;;;;;;5031701;28;20679;-68
2021/10/04 05:31:48;;;;;;;1.63;1.10;;;14.30;40.00;;;;;;5031623;28;20414;-67
2021/10/04 05:34:14;;;;;;;1.30;0.83;;;14.40;40.10;;;;;;5031224;28;20495;-67
2021/10/04 05:36:39;;;;;;;1.83;1.50;;;14.40;40.20;;;;;;5031395;28;20278;-67
2021/10/04 05:39:05;;;;;;;3.10;1.20;;;14.40;39.30;;;;;;5031206;28;20553;-68
2021/10/04 05:41:31;;;;;;;2.57;1.47;;;14.40;40.10;;;;;;5031823;28;20552;-67
2021/10/04 05:43:57;;;;;;;2.47;1.50;;;14.40;40.10;;;;;;5031238;28;20441;-68
2021/10/04 05:46:22;;;;;;;2.20;1.50;;;14.40;40.10;;;;;;5031249;28;20461;-68
2021/10/04 05:48:48;;;;;;;1.70;1.30;;;14.40;40.10;;;;;;5030880;28;20181;-67
2021/10/04 05:51:14;;;;;;;1.23;0.90;;;14.40;40.10;;;;;;5031081;28;20581;-68
2021/10/04 05:53:39;;;;;;;1.50;1.00;;;14.40;39.80;;;;;;5031026;28;20435;-69
2021/10/04 05:56:05;;;;;;;1.40;1.20;;;14.40;40.10;;;;;;5030866;28;20194;-67
2021/10/04 05:58:31;;;;;;;1.30;0.77;;;14.40;40.10;;;;;;5031063;28;20209;-67
2021/10/04 06:00:56;;;;;;;1.80;0.90;;;14.40;40.00;;;;;;5046170;28;20193;-67
2021/10/04 06:03:22;;;;;;;2.43;1.27;;;14.30;40.00;;;;;;5045827;28;20317;-67
2021/10/04 06:05:47;;;;;;;2.10;1.13;;;14.20;40.30;;;;;;5030624;28;20583;-67
2021/10/04 06:08:13;;;;;;;1.73;1.10;;;14.20;40.30;;;;;;5029695;28;20277;-67
2021/10/04 06:10:38;;;;;;;2.37;1.20;;;14.20;40.40;;;;;;5029465;28;20222;-67
2021/10/04 06:13:04;;;;;;;1.73;1.20;;;14.10;40.90;;;;;;5030962;28;20260;-66
2021/10/04 06:15:29;;;;;;;2.43;1.13;;;14.10;41.40;;;;;;5030446;28;20211;-66
2021/10/04 06:17:55;;;;;;;3.60;1.13;;;14.10;41.70;;;;;;5030164;28;20230;-67
2021/10/04 06:20:21;;;;;;;1.60;0.90;;;14.10;41.80;;;;;;5029973;28;20428;-68
2021/10/04 06:22:47;;;;;;;1.37;0.83;;;14.00;42.30;;;;;;5031076;28;20172;-68
2021/10/04 06:25:15;;;;;;;1.80;0.80;;;14.00;42.90;;;;;;5030778;28;20845;-68
2021/10/04 06:27:42;;;;;;;1.67;1.20;;;13.90;42.50;;;;;;5027395;28;20446;-68
2021/10/04 06:30:09;;;;;;;1.50;0.90;;;13.80;43.00;;;;;;5025600;28;20429;-68
2021/10/04 06:32:36;;;;;;;1.40;1.00;;;13.70;43.90;;;;;;5026050;28;20427;-68
2021/10/04 06:35:02;;;;;;;1.40;0.97;;;13.60;44.50;;;;;;5026701;28;20470;-68
2021/10/04 06:37:28;;;;;;;1.33;0.80;;;13.60;44.50;;;;;;5025917;28;20435;-67
2021/10/04 06:39:53;;;;;;;1.40;0.90;;;13.60;44.50;;;;;;5025288;28;20505;-68
2021/10/04 06:42:19;;;;;;;2.80;1.10;;;13.50;44.40;;;;;;5026709;28;20197;-68
2021/10/04 06:44:44;;;;;;;2.43;1.07;;;13.50;45.50;;;;;;5025965;28;20250;-68
2021/10/04 06:47:10;;;;;;;1.20;0.80;;;13.50;45.80;;;;;;5026665;28;20206;-68
2021/10/04 06:49:35;;;;;;;1.50;1.20;;;13.40;45.40;;;;;;5024738;28;20593;-67
2021/10/04 06:52:03;;;;;;;1.70;1.03;;;13.50;45.60;;;;;;5034809;28;20214;-68
2021/10/04 06:54:29;;;;;;;1.50;0.93;;;13.40;45.70;;;;;;5025907;28;20210;-67
2021/10/04 06:56:55;;;;;;;1.60;1.10;;;13.40;46.20;;;;;;5026013;28;20786;-67
2021/10/04 06:59:21;;;;;;;1.93;1.07;;;13.50;46.50;;;;;;5025523;28;20386;-67
2021/10/04 07:01:46;;;;;;;2.00;1.20;;;13.60;46.90;;;;;;5026640;28;20919;-67
2021/10/04 07:04:12;;;;;;;1.67;0.90;;;13.60;47.10;;;;;;5025275;28;20740;-67
2021/10/04 07:06:37;;;;;;;2.33;0.77;;;13.60;46.20;;;;;;5024050;28;20209;-68
2021/10/04 07:09:03;;;;;;;1.53;1.37;;;13.60;46.10;;;;;;5024631;28;20183;-67
2021/10/04 07:11:29;;;;;;;3.13;2.73;;;13.60;45.70;;;;;;5025756;28;20224;-67
2021/10/04 07:13:54;;;;;;;2.90;2.50;;;13.70;45.50;;;;;;5035779;28;20223;-68
2021/10/04 07:16:20;;;;;;;2.23;2.03;;;13.60;45.10;;;;;;5044602;28;20201;-67
2021/10/04 07:18:46;;;;;;;2.10;1.90;;;13.60;45.60;;;;;;5044641;28;20236;-69
2021/10/04 07:21:12;;;;;;;2.00;1.77;;;13.60;45.90;;;;;;5045468;28;20270;-68
2021/10/04 07:23:38;;;;;;;2.03;1.30;;;13.60;46.20;;;;;;5045625;28;20528;-68
2021/10/04 07:26:04;;;;;;;3.27;1.73;;;;;;;;;;5044951;28;20651;-67
2021/10/04 07:28:30;;;;;;;2.07;1.20;;;;;;;;;;5034509;28;20268;-67
2021/10/04 07:30:58;;;;;;;2.07;1.30;;;;;;;;;;5027623;28;20796;-67
2021/10/04 07:33:24;;;;;;;1.50;1.00;;;;;;;;;;5028742;28;20451;-67
2021/10/04 07:35:51;;;;;;;1.60;1.20;;;;;;;;;;5029420;28;20935;-68
2021/10/04 07:38:17;;;;;;;1.47;1.00;;;;;;;;;;5029692;28;20428;-68
2021/10/04 07:40:43;;;;;;;1.10;0.63;;;;;;;;;;5027189;28;20442;-66
2021/10/04 07:43:09;;;;;;;2.00;1.47;;;;;;;;;;5029263;28;20503;-67
2021/10/04 07:45:35;;;;;;;2.37;1.20;;;;;;;;;;5029174;28;20468;-67
2021/10/04 07:48:01;;;;;;;1.40;0.83;;;;;;;;;;5026246;28;20427;-67
2021/10/04 07:50:27;;;;;;;1.53;1.00;;;;;;;;;;5028898;28;20437;-67
2021/10/04 07:52:53;;;;;;;1.90;1.23;;;;;;;;;;5028831;28;20478;-68
2021/10/04 07:55:19;;;;;;;6.00;1.33;;;;;;;;;;5028703;28;20443;-66
2021/10/04 07:57:48;;;;;;;3.63;1.53;;;;;;;;;;5028973;28;20908;-67
2021/10/04 08:00:15;;;;;;;5.93;1.80;;;;;;;;;;5027700;28;20711;-68
2021/10/04 08:02:41;;;;;;;1.77;1.27;;;;;;;;;;5026228;28;21001;-68
2021/10/04 08:05:08;;;;;;;2.10;1.40;;;;;;;;;;5027983;28;20555;-68
2021/10/04 08:07:34;;;;;;;2.17;1.20;;;;;;;;;;5028518;28;20527;-67
2021/10/04 08:09:59;;;;;;;1.43;1.03;;;13.70;45.10;;;;;;5024100;28;20979;-68
2021/10/04 08:12:25;;;;;;;1.40;1.00;;;13.90;46.00;;;;;;5027448;28;20419;-66
2021/10/04 08:14:52;;;;;;;1.80;1.37;;;14.00;45.70;;;;;;5028288;28;20658;-67
2021/10/04 08:17:18;;;;;;;2.10;1.40;;;14.00;45.40;;;;;;5029024;28;20437;-67
2021/10/04 08:19:44;;;;;;;4.50;2.03;;;14.00;45.70;;;;;;5027596;28;20514;-67
2021/10/04 08:22:10;;;;;;;1.90;1.20;;;14.00;45.50;;;;;;5027799;28;20190;-67
2021/10/04 08:24:36;;;;;;;1.40;0.97;;;14.00;46.20;;;;;;5029131;28;20459;-68
2021/10/04 08:27:01;;;;;;;1.40;1.17;;;14.10;46.10;;;;;;5028423;28;20211;-66
2021/10/04 08:29:27;;;;;;;1.70;1.03;;;14.10;45.80;;;;;;5027827;28;20266;-71
2021/10/04 08:31:53;;;;;;;2.27;1.00;;;14.10;45.90;;;;;;5026655;28;20193;-69
2021/10/04 08:34:18;;;;;;;1.97;1.00;;;14.10;45.00;;;;;;5019880;28;20745;-66
2021/10/04 08:36:44;;;;;;;1.40;0.93;;;14.20;45.00;;;;;;5026714;28;20194;-67
2021/10/04 08:39:09;;;;;;;2.00;1.30;;;14.20;44.20;;;;;;5028097;28;20323;-66
2021/10/04 08:41:37;;;;;;;2.30;1.30;;;14.20;42.60;;;;;;5024550;28;20251;-67
2021/10/04 08:44:07;;;;;;;1.40;0.90;;;14.20;43.00;;;;;;5027891;28;20193;-69
2021/10/04 08:46:39;;;;;;;1.50;1.10;;;14.20;43.00;;;;;;5027888;28;20814;-66
2021/10/04 08:49:05;;;;;;;5.93;1.47;;;14.20;43.30;;;;;;5027577;28;20428;-67
2021/10/04 08:51:31;;;;;;;2.13;1.40;;;14.20;43.50;;;;;;5027309;28;20424;-66
2021/10/04 08:53:57;;;;;;;1.60;1.10;;;14.20;43.70;;;;;;5027812;28;20499;-66
2021/10/04 08:56:23;;;;;;;1.93;1.50;;;14.30;43.50;;;;;;5028460;28;20983;-66
2021/10/04 08:58:48;;;;;;;3.10;2.13;;;14.30;43.50;;;;;;5027143;28;20201;-66
2021/10/04 09:01:20;;;;;;;1.83;1.40;;;14.30;43.50;;;;;;5026683;28;20566;-67
2021/10/04 09:03:48;;;;;;;1.93;0.93;;;14.30;43.40;;;;;;5028363;28;20213;-66
2021/10/04 09:06:30;;;;;;;1.40;1.10;;;14.30;43.10;;;;;;5027829;28;20532;-67
2021/10/04 09:09:03;;;;;;;1.90;1.20;;;14.30;42.90;;;;;;5027777;28;21003;-66
2021/10/04 09:11:39;;;;;;;3.83;1.70;;;14.30;43.10;;;;;;5027221;28;20485;-67
2021/10/04 09:14:17;;;;;;;3.20;1.30;;;14.30;43.70;;;;;;5027384;28;20774;-66
2021/10/04 09:17:11;;;;;;;2.17;0.83;;;14.40;43.70;;;;;;5030843;28;20437;-66
2021/10/04 09:19:38;;;;;;;1.83;1.03;;;14.40;43.80;;;;;;5031019;28;20440;-66
2021/10/04 09:22:16;;;;;;;1.50;1.07;;;14.50;43.20;;;;;;5031081;28;20408;-66
2021/10/04 09:24:47;;;;;;;1.30;0.97;;;14.60;43.00;;;;;;5024831;28;20485;-67
2021/10/04 09:27:24;;;;;;;1.37;0.90;;;14.60;43.10;;;;;;5029224;28;20428;-66
2021/10/04 09:29:50;;;;;;;1.50;1.10;;;14.60;42.60;;;;;;5028027;28;20930;-66
2021/10/04 09:32:34;;;;;;;3.10;1.37;;;14.60;41.70;;;;;;5029644;28;20417;-67
2021/10/04 09:35:14;;;;;;;2.37;1.20;;;14.70;41.80;;;;;;5030899;28;20961;-67
2021/10/04 09:37:41;;;;;;;1.37;0.83;;;14.70;42.60;;;;;;5022660;28;20468;-67
2021/10/04 09:40:44;;;;;;;1.90;1.20;;;14.60;42.50;;;;;;5030077;28;20424;-66
2021/10/04 09:43:31;;;;;;;1.50;1.03;;;14.60;41.70;;;;;;5028230;28;20449;-66
2021/10/04 09:46:04;;;;;;;1.67;1.30;;;14.60;42.50;;;;;;5030505;28;20519;-66
2021/10/04 09:48:31;;;;;;;1.83;1.30;;;14.60;42.30;;;;;;5029545;28;20429;-66
2021/10/04 09:51:11;;;;;;;1.30;1.03;;;14.60;42.00;;;;;;5030420;28;20416;-66
2021/10/04 09:53:36;;;;;;;1.43;0.97;;;14.60;42.50;;;;;;5009060;28;20455;-66
2021/10/04 09:56:02;;;;;;;1.60;1.10;;;14.50;42.30;;;;;;5011373;28;20422;-67
2021/10/04 09:58:32;;;;;;;2.40;1.13;;;14.50;42.70;;;;;;5011075;28;20190;-67
2021/10/04 10:01:00;;;;;;;1.87;1.30;;;14.60;43.10;;;;;;5024108;28;20192;-67
2021/10/04 10:03:28;;;;;;;2.20;1.40;;;14.50;43.40;;;;;;5030641;28;20514;-67
2021/10/04 10:05:57;;;;;;;1.63;1.23;;;14.50;43.90;;;;;;5030813;28;20979;-67
2021/10/04 10:08:25;;;;;;;1.70;1.10;;;14.60;44.00;;;;;;5030900;28;20406;-67
2021/10/04 10:10:54;;;;;;;2.83;2.53;;;14.60;43.30;;;;;;5030499;28;20420;-67
2021/10/04 10:13:22;;;;;;;1.70;1.30;;;14.60;43.30;;;;;;5030431;28;20503;-67
2021/10/04 10:16:10;;;;;;;4.73;1.40;;;14.70;43.00;;;;;;5011074;28;20512;-67
2021/10/04 10:18:43;;;;;;;3.93;2.43;;;14.80;42.90;;;;;;5009633;28;20458;-67
2021/10/04 10:21:15;;;;;;;2.57;1.70;;;14.80;42.30;;;;;;5027999;28;20459;-68
2021/10/04 10:23:48;;;;;;;1.80;1.03;;;14.80;41.70;;;;;;5030506;28;20453;-67
2021/10/04 10:26:45;;;;;;;2.00;1.33;;;14.60;41.40;;;;;;5028945;28;20560;-67
2021/10/04 10:29:15;;;;;;;1.50;0.83;;;14.60;41.50;;;;;;5010410;28;20429;-67
2021/10/04 10:31:50;;;;;;;2.10;0.97;;;14.40;43.50;;;;;;5010721;28;20418;-68
2021/10/04 10:34:27;;;;;;;1.90;1.30;;;14.40;43.50;;;;;;5010756;28;20461;-68
2021/10/04 10:37:23;;;;;;;1.60;0.90;;;14.40;45.30;;;;;;5015917;28;20424;-68
2021/10/04 10:40:15;;;;;;;1.80;1.20;;;14.40;45.20;;;;;;5030161;28;20412;-68
2021/10/04 10:42:59;;;;;;;1.43;1.10;;;14.40;45.20;;;;;;5027843;28;20519;-67
2021/10/04 10:45:25;;;;;;;3.30;1.03;;;14.50;45.40;;;;;;5026540;28;20572;-67
2021/10/04 10:47:52;;;;;;;1.17;0.67;;;14.60;45.40;;;;;;5025411;28;20425;-68
2021/10/04 10:50:36;;;;;;;1.73;0.90;;;14.70;44.40;;;;;;5025639;28;20418;-66
2021/10/04 10:53:16;;;;;;;1.30;0.80;;;14.70;40.40;;;;;;5026274;28;21006;-67
2021/10/04 10:55:44;;;;;;;1.53;0.77;;;14.70;40.40;;;;;;5022376;28;20450;-68
2021/10/04 10:58:23;;;;;;;1.40;1.03;;;14.70;41.60;;;;;;5009966;28;20470;-67
2021/10/04 11:00:49;;;;;;;1.43;0.90;;;14.70;42.30;;;;;;5004499;28;20428;-66
2021/10/04 11:03:23;;;;;;;1.60;1.07;;;14.90;41.70;;;;;;5005274;28;21021;-67
2021/10/04 11:06:15;;;;;;;1.20;0.60;;;15.00;40.60;;;;;;5009840;28;20210;-66
2021/10/04 11:08:43;;;;;;;1.30;0.70;;;15.10;39.80;;;;;;5009994;28;20441;-66
2021/10/04 11:11:20;;;;;;;2.07;0.80;;;15.20;39.00;;;;;;5010975;28;20935;-66
2021/10/04 11:14:02;;;;;;;2.33;0.80;;;15.30;39.50;;;;;;5014211;28;20468;-69
2021/10/04 11:16:30;;;;;;;1.40;0.87;;;15.30;39.40;;;;;;5019212;28;20526;-70
2021/10/04 11:18:56;;;;;;;1.30;0.80;;;15.40;37.40;;;;;;5020037;28;20420;-68
2021/10/04 11:21:25;;;;;;;1.50;1.30;;;15.40;37.00;;;;;;5016289;28;20419;-68
2021/10/04 11:23:58;;;;;;;1.60;1.37;;;15.40;34.50;;;;;;5016076;28;20234;-69
2021/10/04 11:26:24;;;;;;;4.33;2.33;;;15.40;33.80;;;;;;5014918;28;20468;-68
2021/10/04 11:28:54;;;;;;;1.60;1.23;;;15.40;34.80;;;;;;5014992;28;20912;-68
2021/10/04 11:31:21;;;;;;;1.70;1.43;;;15.50;34.50;;;;;;5030011;28;20423;-67
2021/10/04 11:33:51;;;;;;;1.63;1.20;;;15.60;35.80;;;;;;5014873;28;20469;-68
2021/10/04 11:36:20;;;;;;;1.47;1.17;;;15.80;34.80;;;;;;5014882;28;20894;-68
2021/10/04 11:39:05;;;;;;;1.40;1.10;;;16.00;32.80;;;;;;5014641;28;20434;-67
2021/10/04 11:41:34;;;;;;;1.63;1.00;;;16.10;34.40;;;;;;5090173;23;20519;-68
2021/10/04 11:44:03;;;;;;;1.40;1.07;;;16.20;33.90;;;;;;5053306;28;20852;-68
2021/10/04 11:46:32;;;;;;;1.67;1.50;;;16.10;33.50;;;;;;5053170;28;20550;-67
2021/10/04 11:49:18;;;;;;;2.63;1.63;;;16.20;33.70;;;;;;5053016;28;20802;-67
2021/10/04 11:51:50;;;;;;;2.80;1.70;;;16.30;34.00;;;;;;5068538;28;20441;-67
2021/10/04 11:54:37;;;;;;;1.60;1.30;;;16.40;33.90;;;;;;5053151;28;20401;-68
2021/10/04 11:57:05;;;;;;;1.70;1.33;;;16.40;33.00;;;;;;5053500;28;20405;-69
2021/10/04 11:59:45;;;;;;;1.57;1.30;;;16.30;32.80;;;;;;5052749;28;20409;-67
2021/10/04 12:02:30;;;;;;;2.67;1.70;;;16.40;30.30;;;;;;5052779;28;20404;-68
2021/10/04 12:05:22;;;;;;;2.03;1.83;;;16.20;29.60;;;;;;5052797;28;20502;-67
2021/10/04 12:08:19;;;;;;;1.93;1.73;;;15.80;28.90;;;;;;5053174;28;20441;-67
2021/10/04 12:10:56;;;;;;;2.50;1.60;;;15.70;30.00;;;;;;5047601;28;20452;-67
2021/10/04 12:13:24;;;;;;;1.60;1.40;;;15.60;29.50;;;;;;5052982;28;21022;-68
2021/10/04 12:15:52;;;;;;;1.87;1.53;;;15.40;30.40;;;;;;5051916;28;20974;-68
2021/10/04 12:18:23;;;;;;;1.87;1.37;;;15.30;30.40;;;;;;5052838;28;20413;-68
2021/10/04 12:20:51;;;;;;;1.50;1.13;;;15.30;31.30;;;;;;5051989;28;20476;-68
2021/10/04 12:23:18;;;;;;;1.50;1.30;;;15.20;33.20;;;;;;5052779;28;20420;-67
2021/10/04 12:25:43;;;;;;;1.63;1.20;;;15.30;32.30;;;;;;5052426;28;21012;-68
2021/10/04 12:28:11;;;;;;;2.43;1.83;;;15.20;33.80;;;;;;5052394;28;20427;-67
2021/10/04 12:30:41;;;;;;;3.97;1.50;;;15.10;35.50;;;;;;5052119;28;20284;-67
2021/10/04 12:33:07;;;;;;;2.40;1.57;;;15.00;36.00;;;;;;5052399;28;20409;-67
2021/10/04 12:35:32;;;;;;;3.97;1.57;;;15.00;37.20;;;;;;5052372;28;20407;-68
2021/10/04 12:38:13;;;;;;;5.30;1.80;;;15.00;37.40;;;;;;5052334;28;20171;-67
2021/10/04 12:41:00;;;;;;;1.90;1.50;;;14.90;37.30;;;;;;5051572;28;20251;-67
2021/10/04 12:43:28;;;;;;;1.63;1.50;;;15.00;38.30;;;;;;5052412;28;20588;-68
2021/10/04 12:45:56;;;;;;;1.90;1.70;;;15.10;38.50;;;;;;5052422;28;20769;-68
2021/10/04 12:48:23;;;;;;;2.00;1.80;;;15.20;37.40;;;;;;5052325;28;20444;-68
2021/10/04 12:51:07;;;;;;;1.90;1.53;;;15.20;37.20;;;;;;5051908;28;20526;-68
2021/10/04 12:53:42;;;;;;;1.63;1.50;;;15.30;37.00;;;;;;5052313;28;20439;-68
2021/10/04 12:56:08;;;;;;;1.63;1.27;;;15.30;35.70;;;;;;5052220;28;20929;-67
2021/10/04 12:58:36;;;;;;;1.67;1.40;;;15.10;35.50;;;;;;5052175;28;20496;-68